Starachowice, Poland
Current Conditions -  °F | °C
As of 7:00 AM on Thursday 23 Oct 2014 (Local Time) from EPLB Reporting Station
Light Rain Light Rain  
Wind Chill: 29°   Ceiling: 600
Heat Index: 39°   Visibility: 6mi
Dew Point: 37°   Wind: 21mph
Humidity: 93%   Direction: 50°NE
Pressure: 29.91"   Gusts: NA
Location:  51.06°N, 21.07°E
Report Text: EPLB 230500Z 05018KT 9999 -RA BKN006 OVC010 04/03 Q1013
Loading
Personal Weather Stations






























Interactive Weather Map
Tropical Storm Tracking
New forecast layout! Learn more

10-Day Weather Forecast

Advertisements
Track Severe Weather on mobile